Time;durP1;ratioP1;P1;durP2;ratioP2;P2;SDS_P1;SDS_P2;PMS_P1;PMS_P2;Temp;Humidity;BMP_temperature;BMP_pressure;BME280_temperature;BME280_humidity;BME280_pressure;Samples;Min_cycle;Max_cycle;Signal;HPM_P1;HPM_P2
2021/12/03 00:01:08;;;;;;;21.88;11.52;;;;;;;-1.02;100.00;101048.81;5066454;28;20426;-42
2021/12/03 00:03:34;;;;;;;;;;;;;;;-0.97;100.00;101054.66;5058143;28;20024;-43
2021/12/03 00:06:00;;;;;;;21.98;11.90;;;;;;;-0.94;100.00;101051.00;5056149;28;19908;-42
2021/12/03 00:08:26;;;;;;;24.98;12.90;;;;;;;-0.95;100.00;101047.53;5058635;28;20422;-42
2021/12/03 00:10:57;;;;;;;26.52;13.30;;;;;;;-0.96;100.00;101055.50;5064280;28;20427;-45
2021/12/03 00:13:24;;;;;;;28.73;12.88;;;;;;;-0.95;100.00;101055.41;5072323;28;20814;-43
2021/12/03 00:15:51;;;;;;;24.92;13.02;;;;;;;-0.96;100.00;101056.31;5057166;28;20020;-45
2021/12/03 00:18:16;;;;;;;28.67;13.75;;;;;;;-0.98;100.00;101052.94;5055968;28;20032;-42
2021/12/03 00:20:41;;;;;;;26.50;13.63;;;;;;;-0.98;100.00;101055.56;5055857;28;20440;-44
2021/12/03 00:23:07;;;;;;;27.80;13.70;;;;;;;-0.99;100.00;101051.25;5055224;28;20024;-44
2021/12/03 00:25:34;;;;;;;31.38;14.05;;;;;;;-0.98;100.00;101058.19;5062463;28;20032;-46
2021/12/03 00:28:00;;;;;;;31.95;14.63;;;;;;;-0.97;100.00;101051.16;5076341;28;20086;-43
2021/12/03 00:30:26;;;;;;;38.92;16.08;;;;;;;-0.96;100.00;101055.50;5067566;28;20514;-44
2021/12/03 00:32:53;;;;;;;32.90;15.57;;;;;;;-0.97;100.00;101059.91;5076033;28;20185;-45
2021/12/03 00:35:18;;;;;;;32.13;15.75;;;;;;;-0.98;100.00;101062.59;5075128;28;20085;-41
2021/12/03 00:37:48;;;;;;;31.08;15.68;;;;;;;-0.97;100.00;101065.13;5074529;28;20426;-45
2021/12/03 00:40:18;;;;;;;35.33;15.65;;;;;;;-1.00;100.00;101054.81;5076545;28;20103;-48
2021/12/03 00:42:44;;;;;;;40.28;16.02;;;;;;;-1.01;100.00;101052.25;5075899;28;20016;-43
2021/12/03 00:45:11;;;;;;;40.85;17.00;;;;;;;-1.01;100.00;101062.75;5074749;28;20027;-42
2021/12/03 00:47:37;;;;;;;35.53;15.80;;;;;;;-1.02;100.00;101056.66;5076423;28;20031;-44
2021/12/03 00:50:05;;;;;;;37.85;16.63;;;;;;;-0.99;100.00;101063.50;5072862;28;20040;-42
2021/12/03 00:52:31;;;;;;;34.33;16.08;;;;;;;-0.97;100.00;101056.41;5062159;28;20326;-44
2021/12/03 00:54:56;;;;;;;33.78;16.58;;;;;;;-0.98;100.00;101062.59;5070962;28;20020;-41
2021/12/03 00:57:21;;;;;;;40.30;17.95;;;;;;;-0.97;100.00;101065.13;5053588;28;20024;-43
2021/12/03 00:59:46;;;;;;;35.53;16.58;;;;;;;-0.98;100.00;101070.47;5065618;28;20032;-43
2021/12/03 01:02:12;;;;;;;42.50;17.20;;;;;;;-0.98;100.00;101067.84;5075250;28;20024;-41
2021/12/03 01:04:37;;;;;;;39.67;18.05;;;;;;;-1.00;100.00;101069.66;5075035;28;20040;-41
2021/12/03 01:07:03;;;;;;;37.72;17.45;;;;;;;-0.99;100.00;101072.22;5076078;28;20036;-43
2021/12/03 01:09:31;;;;;;;39.63;18.10;;;;;;;-1.00;100.00;101074.91;5075715;28;20031;-43
2021/12/03 01:11:57;;;;;;;40.33;17.70;;;;;;;-1.01;100.00;101075.84;5067643;28;20298;-42
2021/12/03 01:14:22;;;;;;;42.97;18.70;;;;;;;-1.01;100.00;101073.25;5057098;28;20047;-43
2021/12/03 01:16:47;;;;;;;38.50;18.35;;;;;;;-1.05;100.00;101072.56;5076063;28;20054;-45
2021/12/03 01:19:13;;;;;;;50.08;19.38;;;;;;;-1.05;100.00;101082.16;5065910;28;20020;-42
2021/12/03 01:21:38;;;;;;;44.72;18.88;;;;;;;-1.08;100.00;101079.75;5060205;28;20253;-42
2021/12/03 01:24:05;;;;;;;41.50;19.42;;;;;;;-1.09;100.00;101080.66;5075192;28;20040;-42
2021/12/03 01:26:32;;;;;;;40.60;19.15;;;;;;;-1.08;100.00;101083.19;5071882;28;20441;-44
2021/12/03 01:28:58;;;;;;;46.88;20.08;;;;;;;-1.06;100.00;101078.72;5054408;28;20336;-45
2021/12/03 01:31:23;;;;;;;45.30;20.67;;;;;;;-1.01;100.00;101086.34;5057667;28;20054;-44
2021/12/03 01:33:48;;;;;;;49.83;22.42;;;;;;;-0.98;100.00;101080.94;5075193;28;20020;-42
2021/12/03 01:36:14;;;;;;;48.22;21.33;;;;;;;-0.96;100.00;101086.94;5055047;28;20028;-43
2021/12/03 01:38:40;;;;;;;47.75;21.05;;;;;;;-0.97;100.00;101078.25;5058603;28;20050;-41
2021/12/03 01:41:05;;;;;;;54.00;22.17;;;;;;;-0.94;100.00;101067.56;5076346;28;20020;-44
2021/12/03 01:43:32;;;;;;;55.85;22.63;;;;;;;-0.91;100.00;101076.22;5074816;28;20028;-43
2021/12/03 01:46:03;;;;;;;57.58;23.92;;;;;;;-0.89;100.00;101074.38;5075652;28;20019;-42
2021/12/03 01:48:29;;;;;;;61.95;25.88;;;;;;;-0.88;100.00;101063.78;5074621;28;20078;-43
2021/12/03 01:50:56;;;;;;;72.95;31.67;;;;;;;-0.88;100.00;101061.19;5073907;28;20149;-43
2021/12/03 01:53:25;;;;;;;60.05;25.75;;;;;;;-0.85;100.00;101057.53;5066570;28;20032;-42
2021/12/03 01:55:55;;;;;;;60.88;26.38;;;;;;;-0.85;100.00;101057.53;5051637;28;20214;-42
2021/12/03 01:58:21;;;;;;;63.50;26.52;;;;;;;-0.83;100.00;101051.28;5054417;28;20142;-42
2021/12/03 02:00:51;;;;;;;69.20;26.27;;;;;;;-0.81;100.00;101065.16;5066047;28;20072;-43
2021/12/03 02:03:20;;;;;;;59.88;26.95;;;;;;;-0.78;100.00;101066.75;5073225;28;20081;-45
2021/12/03 02:05:46;;;;;;;59.88;26.77;;;;;;;-0.78;100.00;101072.88;5074891;28;20036;-43
2021/12/03 02:08:12;;;;;;;65.07;25.65;;;;;;;-0.76;100.00;101065.75;5074931;28;20696;-41
2021/12/03 02:10:39;;;;;;;72.18;28.63;;;;;;;-0.74;100.00;101064.84;5064075;28;20021;-41
2021/12/03 02:13:05;;;;;;;78.95;30.55;;;;;;;-0.71;100.00;101070.75;5056231;28;20463;-42
2021/12/03 02:15:31;;;;;;;66.45;28.40;;;;;;;-0.69;100.00;101073.31;5073259;28;20046;-46
2021/12/03 02:17:57;;;;;;;66.75;28.35;;;;;;;-0.68;100.00;101078.47;5064314;28;20033;-45
2021/12/03 02:20:22;;;;;;;70.85;29.60;;;;;;;-0.66;100.00;101071.34;5052907;28;20032;-42
2021/12/03 02:22:49;;;;;;;71.93;30.58;;;;;;;-0.65;100.00;101075.66;5071657;28;20089;-42
2021/12/03 02:25:20;;;;;;;82.82;33.05;;;;;;;-0.64;100.00;101071.28;5074005;28;20056;-42
2021/12/03 02:27:49;;;;;;;88.05;34.38;;;;;;;-0.73;100.00;101056.03;5074038;28;20036;-41
2021/12/03 02:30:15;;;;;;;80.07;33.85;;;;;;;-0.61;100.00;101064.09;5074871;28;20124;-44
2021/12/03 02:32:41;;;;;;;97.50;36.88;;;;;;;-0.57;100.00;101057.72;5055963;28;20563;-42
2021/12/03 02:35:08;;;;;;;103.60;37.13;;;;;;;-0.53;100.00;101049.69;5056443;28;20229;-43
2021/12/03 02:37:33;;;;;;;107.85;38.55;;;;;;;-0.52;100.00;101049.59;5057320;28;20778;-44
2021/12/03 02:39:59;;;;;;;126.80;42.08;;;;;;;-0.52;100.00;101060.09;5062424;28;20236;-42
2021/12/03 02:42:24;;;;;;;148.95;48.17;;;;;;;-0.50;100.00;101047.75;5053459;28;20028;-44
2021/12/03 02:44:50;;;;;;;145.38;48.92;;;;;;;-0.50;100.00;101041.66;5071664;28;20024;-44
2021/12/03 02:47:15;;;;;;;130.02;40.72;;;;;;;-0.49;100.00;101052.06;5076864;28;20246;-44
2021/12/03 02:49:41;;;;;;;132.35;42.45;;;;;;;-0.50;100.00;101054.78;5078110;28;20347;-42
2021/12/03 02:52:08;;;;;;;146.32;46.13;;;;;;;-0.48;100.00;101051.13;5077953;28;20517;-43
2021/12/03 02:54:34;;;;;;;170.43;56.60;;;;;;;-0.49;100.00;101054.69;5074158;28;20487;-43
2021/12/03 02:57:00;;;;;;;163.10;50.67;;;;;;;-0.48;100.00;101063.41;5077262;28;20073;-43
2021/12/03 02:59:26;;;;;;;146.35;43.58;;;;;;;-0.45;100.00;101063.25;5065694;28;20028;-42
2021/12/03 03:01:51;;;;;;;173.82;48.15;;;;;;;-0.45;100.00;101053.59;5057298;28;20472;-43
2021/12/03 03:04:16;;;;;;;159.20;43.80;;;;;;;-0.46;100.00;101051.91;5059729;28;20029;-47
2021/12/03 03:06:42;;;;;;;191.35;47.70;;;;;;;-0.42;100.00;101050.78;5078195;28;20568;-42
2021/12/03 03:09:11;;;;;;;193.73;49.95;;;;;;;-0.40;100.00;101045.47;5078170;28;20027;-43
2021/12/03 03:11:37;;;;;;;201.88;49.13;;;;;;;-0.38;100.00;101044.44;5057320;28;20020;-44
2021/12/03 03:14:04;;;;;;;212.10;49.60;;;;;;;-0.35;100.00;101040.81;5069706;28;20183;-46
2021/12/03 03:16:30;;;;;;;209.30;49.17;;;;;;;-0.33;100.00;101038.94;5058324;28;20360;-43
2021/12/03 03:18:55;;;;;;;213.07;48.33;;;;;;;-0.31;100.00;101042.31;5055769;28;20024;-44
2021/12/03 03:21:21;;;;;;;222.40;48.78;;;;;;;-0.29;100.00;101043.09;5071729;28;20540;-42
2021/12/03 03:23:46;;;;;;;260.27;58.67;;;;;;;-0.27;100.00;101049.09;5065757;28;20131;-43
2021/12/03 03:26:12;;;;;;;204.50;48.35;;;;;;;-0.25;100.00;101046.38;5056670;28;20016;-43
2021/12/03 03:28:39;;;;;;;211.70;50.55;;;;;;;-0.24;100.00;101038.44;5065024;28;20645;-44
2021/12/03 03:31:05;;;;;;;214.10;49.00;;;;;;;-0.25;100.00;101038.50;5077322;28;20016;-47
2021/12/03 03:33:31;;;;;;;214.82;49.13;;;;;;;-0.25;100.00;101031.47;5077122;28;20580;-42
2021/12/03 03:35:56;;;;;;;196.70;51.15;;;;;;;-0.24;100.00;101040.19;5067350;28;20545;-42
2021/12/03 03:38:22;;;;;;;216.27;53.47;;;;;;;-0.23;100.00;101036.63;5077346;28;20477;-44
2021/12/03 03:40:48;;;;;;;182.80;46.20;;;;;;;-0.23;100.00;101040.09;5076845;28;20032;-42
2021/12/03 03:43:13;;;;;;;200.63;48.88;;;;;;;-0.22;100.00;101040.94;5075430;28;20466;-42
2021/12/03 03:45:41;;;;;;;209.25;50.25;;;;;;;-0.21;100.00;101046.09;5063959;28;20016;-42
2021/12/03 03:48:07;;;;;;;232.55;58.45;;;;;;;-0.18;100.00;101041.63;5072355;28;20029;-42
2021/12/03 03:50:32;;;;;;;237.55;59.30;;;;;;;-0.15;100.00;101041.44;5060170;28;20553;-45
2021/12/03 03:52:58;;;;;;;214.30;51.33;;;;;;;-0.15;100.00;101037.06;5056453;28;20124;-43
2021/12/03 03:55:24;;;;;;;224.68;52.83;;;;;;;-0.12;100.00;101042.13;5053938;28;20073;-42
2021/12/03 03:57:51;;;;;;;215.65;54.85;;;;;;;-0.12;100.00;101029.00;5077419;28;20028;-44
2021/12/03 04:00:22;;;;;;;180.10;46.75;;;;;;;-0.13;100.00;101024.69;5057632;28;20122;-42
2021/12/03 04:02:47;;;;;;;230.33;60.43;;;;;;;-0.14;100.00;101022.16;5075969;28;20023;-44
2021/12/03 04:05:13;;;;;;;200.95;53.97;;;;;;;-0.12;100.00;101013.25;5076615;28;20020;-43
2021/12/03 04:07:39;;;;;;;194.90;51.78;;;;;;;-0.17;100.00;101001.31;5077295;28;20028;-46
2021/12/03 04:10:06;;;;;;;207.55;56.90;;;;;;;-0.11;100.00;101019.34;5074891;28;20383;-41
2021/12/03 04:12:32;;;;;;;192.45;52.13;;;;;;;-0.10;100.00;101007.91;5076684;28;20028;-43
2021/12/03 04:14:58;;;;;;;224.70;61.80;;;;;;;-0.11;100.00;100999.19;5068723;28;20546;-41
2021/12/03 04:17:23;;;;;;;209.50;57.20;;;;;;;-0.08;100.00;101011.31;5062236;28;20028;-44
2021/12/03 04:19:48;;;;;;;212.35;56.65;;;;;;;-0.06;100.00;101017.31;5066078;28;20115;-42
2021/12/03 04:22:17;;;;;;;249.02;62.58;;;;;;;-0.12;100.00;101008.00;5075353;28;20051;-46
2021/12/03 04:24:42;;;;;;;203.18;52.17;;;;;;;-0.03;100.00;101007.47;5063696;28;20041;-42
2021/12/03 04:27:08;;;;;;;233.50;58.25;;;;;;;-0.02;100.00;101017.03;5073870;28;20472;-42
2021/12/03 04:29:33;;;;;;;224.77;53.38;;;;;;;-0.01;100.00;101016.09;5057241;28;20886;-42
2021/12/03 04:31:59;;;;;;;230.18;57.67;;;;;;;0.02;100.00;101008.97;5069131;28;20111;-42
2021/12/03 04:34:24;;;;;;;220.30;52.67;;;;;;;0.01;100.00;101010.75;5057489;28;20373;-43
2021/12/03 04:36:50;;;;;;;240.90;57.22;;;;;;;0.03;100.00;101013.28;5072949;28;20081;-42
2021/12/03 04:39:15;;;;;;;207.73;52.25;;;;;;;0.01;100.00;101016.00;5041577;28;20322;-42
2021/12/03 04:41:40;;;;;;;234.75;55.17;;;;;;;-0.01;100.00;101016.09;5064719;28;20090;-46
2021/12/03 04:44:06;;;;;;;225.55;52.97;;;;;;;0.00;100.00;101027.47;5067999;28;20026;-45
2021/12/03 04:46:31;;;;;;;262.77;62.53;;;;;;;0.01;100.00;101015.16;5063169;28;20101;-42
2021/12/03 04:48:56;;;;;;;196.57;48.28;;;;;;;0.09;100.00;101021.66;5066030;28;20044;-43
2021/12/03 04:51:21;;;;;;;213.88;51.20;;;;;;;0.12;100.00;101015.38;5070708;28;20512;-43
2021/12/03 04:53:47;;;;;;;212.15;48.88;;;;;;;0.16;100.00;101024.78;5067502;28;20040;-42
2021/12/03 04:56:12;;;;;;;205.23;50.88;;;;;;;0.16;100.00;101001.97;5071212;28;20108;-46
2021/12/03 04:58:37;;;;;;;223.90;54.40;;;;;;;0.10;100.00;100997.13;5071345;28;20075;-42
2021/12/03 05:01:03;;;;;;;201.27;52.70;;;;;;;0.20;100.00;101012.31;5066674;28;20078;-43
2021/12/03 05:03:29;;;;;;;180.57;51.03;;;;;;;0.24;100.00;101013.81;5054644;28;20029;-43
2021/12/03 05:05:57;;;;;;;212.30;50.05;;;;;;;0.25;100.00;100995.34;5061561;28;20021;-42
2021/12/03 05:08:28;;;;;;;213.32;57.72;;;;;;;0.26;100.00;101002.28;5076190;28;20020;-42
2021/12/03 05:10:55;;;;;;;180.20;49.83;;;;;;;0.28;100.00;101000.41;5075335;28;20842;-42
2021/12/03 05:13:28;;;;;;;173.05;48.42;;;;;;;0.25;100.00;100987.47;5067455;28;20025;-41
2021/12/03 05:15:53;;;;;;;182.70;50.55;;;;;;;0.27;100.00;100990.88;5055620;28;20031;-43
2021/12/03 05:18:20;;;;;;;177.25;49.17;;;;;;;0.27;100.00;100985.59;5067079;28;20028;-44
2021/12/03 05:20:47;;;;;;;170.85;48.47;;;;;;;0.26;100.00;100988.31;5054456;28;20495;-45
2021/12/03 05:23:13;;;;;;;181.00;51.67;;;;;;;0.25;100.00;100982.19;5049301;28;20032;-42
2021/12/03 05:25:39;;;;;;;158.07;44.00;;;;;;;0.30;100.00;100984.56;5074447;28;20484;-46
2021/12/03 05:28:05;;;;;;;148.82;44.75;;;;;;;0.30;100.00;100981.94;5074982;28;20146;-42
2021/12/03 05:30:32;;;;;;;129.98;41.58;;;;;;;0.31;100.00;100976.59;5059449;28;20666;-45
2021/12/03 05:32:58;;;;;;;140.98;46.95;;;;;;;0.31;100.00;100981.00;5054852;28;20025;-42
2021/12/03 05:35:24;;;;;;;124.45;38.00;;;;;;;0.33;100.00;100981.75;5053621;28;20612;-44
2021/12/03 05:37:49;;;;;;;137.05;40.97;;;;;;;0.34;100.00;100991.31;5056375;28;20055;-46
2021/12/03 05:40:17;;;;;;;143.30;41.85;;;;;;;0.33;100.00;100984.38;5053765;28;20721;-44
2021/12/03 05:42:45;;;;;;;116.03;37.15;;;;;;;0.35;100.00;100993.00;5069806;28;20621;-42
2021/12/03 05:45:12;;;;;;;123.32;36.90;;;;;;;0.37;100.00;100996.38;5074943;28;20012;-45
2021/12/03 05:47:37;;;;;;;104.82;34.55;;;;;;;0.38;100.00;101002.50;5055896;28;20059;-45
2021/12/03 05:50:05;;;;;;;102.28;33.28;;;;;;;0.39;100.00;100991.91;5035172;28;20020;-47
2021/12/03 05:52:31;;;;;;;83.07;27.55;;;;;;;0.40;100.00;100990.97;5057627;28;20024;-42
2021/12/03 05:54:56;;;;;;;87.20;27.52;;;;;;;0.45;100.00;100995.94;5053653;28;20496;-44
2021/12/03 05:57:22;;;;;;;87.13;29.70;;;;;;;0.40;100.00;100983.06;5054888;28;20352;-46
2021/12/03 05:59:47;;;;;;;71.07;26.13;;;;;;;0.46;100.00;100992.38;5062391;28;20024;-42
2021/12/03 06:02:12;;;;;;;72.88;23.70;;;;;;;0.46;100.00;101001.09;5058025;28;20029;-43
2021/12/03 06:04:38;;;;;;;74.88;22.65;;;;;;;0.49;100.00;100998.31;5052789;28;20076;-43
2021/12/03 06:07:04;;;;;;;73.85;24.20;;;;;;;0.53;100.00;100997.16;5054603;28;20107;-43
2021/12/03 06:09:30;;;;;;;59.22;20.85;;;;;;;0.57;100.00;100991.72;5066240;28;20020;-43
2021/12/03 06:11:55;;;;;;;55.92;18.55;;;;;;;0.62;100.00;100992.31;5072766;28;20039;-42
2021/12/03 06:14:20;;;;;;;63.15;20.35;;;;;;;0.64;100.00;100988.63;5073236;28;20095;-45
2021/12/03 06:16:46;;;;;;;61.47;19.27;;;;;;;0.63;100.00;100988.72;5074539;28;20087;-41
2021/12/03 06:19:11;;;;;;;46.83;17.25;;;;;;;0.65;100.00;100977.19;5060020;28;20021;-43
2021/12/03 06:21:36;;;;;;;53.70;16.60;;;;;;;0.65;100.00;100971.94;5073538;28;20016;-43
2021/12/03 06:24:02;;;;;;;54.22;19.00;;;;;;;0.66;100.00;100971.00;5076306;28;20163;-43
2021/12/03 06:26:27;;;;;;;65.38;18.55;;;;;;;0.68;100.00;100979.63;5077264;28;20110;-42
2021/12/03 06:28:54;;;;;;;52.85;15.43;;;;;;;0.71;100.00;100989.97;5078262;28;20119;-41
2021/12/03 06:31:19;;;;;;;42.33;15.30;;;;;;;0.72;100.00;100975.88;5076754;28;20454;-45
2021/12/03 06:33:44;;;;;;;50.97;14.70;;;;;;;0.73;100.00;100968.81;5076705;28;20210;-45
2021/12/03 06:36:10;;;;;;;40.20;12.40;;;;;;;0.75;100.00;100972.22;5071798;28;20028;-45
2021/12/03 06:38:38;;;;;;;49.53;13.10;;;;;;;0.79;100.00;100975.50;5058148;28;20097;-45
2021/12/03 06:41:04;;;;;;;44.72;13.23;;;;;;;0.75;100.00;100969.59;5056439;28;20123;-44
2021/12/03 06:43:29;;;;;;;31.45;11.65;;;;;;;0.77;100.00;100972.97;5064597;28;20448;-44
2021/12/03 06:45:54;;;;;;;39.75;11.60;;;;;;;0.74;100.00;100975.78;5071744;28;20028;-45
2021/12/03 06:48:20;;;;;;;39.97;11.27;;;;;;;0.74;100.00;100973.13;5070920;28;20170;-45
2021/12/03 06:50:48;;;;;;;33.88;12.13;;;;;;;0.74;100.00;100973.97;5041872;28;20028;-44
2021/12/03 06:53:15;;;;;;;51.42;12.55;;;;;;;0.73;100.00;100995.97;5058225;28;20024;-42
2021/12/03 06:55:50;;;;;;;39.13;10.80;;;;;;;0.72;100.00;100983.75;5062414;28;20035;-45
2021/12/03 06:58:19;;;;;;;41.80;11.43;;;;;;;0.73;100.00;100980.19;5076981;28;20476;-41
2021/12/03 07:00:47;;;;;;;35.90;10.07;;;;;;;0.68;100.00;100987.50;5080551;28;20077;-42
2021/12/03 07:03:13;;;;;;;33.78;9.40;;;;;;;0.64;100.00;100982.53;5072407;28;20037;-43
2021/12/03 07:05:38;;;;;;;42.63;10.15;;;;;;;0.64;100.00;100978.09;5065074;28;20356;-41
2021/12/03 07:08:04;;;;;;;37.25;9.77;;;;;;;0.61;100.00;100983.59;5070854;28;20360;-42
2021/12/03 07:10:30;;;;;;;37.25;10.52;;;;;;;0.63;100.00;100979.06;5060077;28;20037;-47
2021/12/03 07:12:55;;;;;;;35.65;10.45;;;;;;;0.63;100.00;100980.81;5078408;28;20024;-42
2021/12/03 07:15:21;;;;;;;34.88;10.50;;;;;;;0.64;100.00;100967.59;5074846;28;20024;-44
2021/12/03 07:17:50;;;;;;;42.72;10.30;;;;;;;0.62;100.00;100966.00;5078346;28;20023;-44
2021/12/03 07:20:16;;;;;;;34.97;11.10;;;;;;;0.60;100.00;100970.53;5076801;28;20371;-43
2021/12/03 07:22:41;;;;;;;35.65;9.77;;;;;;;0.58;100.00;100957.47;5076624;28;20486;-45
2021/12/03 07:25:07;;;;;;;35.83;10.15;;;;;;;0.58;100.00;100960.09;5061490;28;20128;-43
2021/12/03 07:27:33;;;;;;;34.08;10.95;;;;;;;0.57;100.00;100960.19;5070574;28;20089;-45
2021/12/03 07:29:58;;;;;;;25.33;8.82;;;;;;;0.54;100.00;100950.69;5059045;28;20107;-43
2021/12/03 07:32:24;;;;;;;34.15;10.35;;;;;;;0.55;100.00;100952.41;5069947;28;20060;-43
2021/12/03 07:34:49;;;;;;;36.10;10.40;;;;;;;0.53;100.00;100957.75;5075373;28;20111;-40
2021/12/03 07:37:15;;;;;;;31.23;9.27;;;;;;;0.53;100.00;100965.63;5063624;28;20028;-42
2021/12/03 07:39:41;;;;;;;49.08;10.38;;;;;;;0.55;100.00;100963.75;5056908;28;20539;-43
2021/12/03 07:42:07;;;;;;;26.75;9.30;;;;;;;0.55;100.00;100968.16;5056195;28;20111;-43
2021/12/03 07:44:32;;;;;;;40.42;9.80;;;;;;;0.57;100.00;100961.03;5058450;28;20452;-45
2021/12/03 07:46:58;;;;;;;33.70;9.10;;;;;;;0.60;100.00;100965.28;5069585;28;20208;-44
2021/12/03 07:49:25;;;;;;;33.83;10.70;;;;;;;0.61;100.00;100964.31;5062900;28;20031;-43
2021/12/03 07:51:51;;;;;;;29.70;8.90;;;;;;;0.62;100.00;100958.97;5077313;28;20016;-42
2021/12/03 07:54:17;;;;;;;35.83;9.30;;;;;;;0.63;100.00;100959.81;5066228;28;20028;-44
2021/12/03 07:56:43;;;;;;;26.60;8.48;;;;;;;0.64;100.00;100951.81;5057541;28;20475;-43
2021/12/03 07:59:08;;;;;;;33.20;9.35;;;;;;;0.65;100.00;100957.94;5055988;28;20021;-42
2021/12/03 08:01:33;;;;;;;31.92;9.45;;;;;;;0.63;100.00;100955.41;5056639;28;20055;-43
2021/12/03 08:03:59;;;;;;;34.53;10.38;;;;;;;0.64;100.00;100953.63;5056737;28;20496;-42
2021/12/03 08:06:24;;;;;;;35.83;10.27;;;;;;;0.62;100.00;100945.81;5043156;28;20021;-43
2021/12/03 08:08:49;;;;;;;30.23;9.38;;;;;;;0.64;100.00;100951.00;5065032;28;20112;-41
2021/12/03 08:11:15;;;;;;;35.20;9.45;;;;;;;0.67;100.00;100951.66;5056552;28;20092;-43
2021/12/03 08:13:40;;;;;;;28.80;8.13;;;;;;;0.71;100.00;100953.16;5057211;28;20093;-44
2021/12/03 08:16:06;;;;;;;20.98;7.43;;;;;;;0.73;100.00;100950.41;5057718;28;20016;-44
2021/12/03 08:18:31;;;;;;;27.75;8.60;;;;;;;0.73;100.00;100953.91;5076076;28;20077;-44
2021/12/03 08:20:57;;;;;;;44.42;9.35;;;;;;;0.72;100.00;100948.75;5074698;28;20408;-43
2021/12/03 08:23:23;;;;;;;33.22;8.30;;;;;;;0.76;100.00;100952.84;5056171;28;20051;-44
2021/12/03 08:25:49;;;;;;;39.80;9.05;;;;;;;0.82;100.00;100954.28;5061103;28;20021;-43
2021/12/03 08:28:14;;;;;;;29.08;7.30;;;;;;;0.84;100.00;100957.66;5071826;28;20329;-42
2021/12/03 08:30:40;;;;;;;44.17;7.60;;;;;;;0.86;100.00;100951.34;5058858;28;20032;-44
2021/12/03 08:33:06;;;;;;;37.88;8.02;;;;;;;0.87;100.00;100941.69;5056975;28;20480;-45
2021/12/03 08:35:31;;;;;;;30.30;7.18;;;;;;;0.92;100.00;100948.34;5075064;28;20343;-46
2021/12/03 08:37:57;;;;;;;36.08;7.68;;;;;;;0.93;100.00;100947.41;5056170;28;20019;-42
2021/12/03 08:40:23;;;;;;;26.52;7.38;;;;;;;0.96;100.00;100950.78;5054815;28;20054;-43
2021/12/03 08:42:49;;;;;;;27.63;6.63;;;;;;;1.00;100.00;100955.75;5055673;28;20016;-44
2021/12/03 08:45:18;;;;;;;31.48;6.53;;;;;;;0.98;100.00;100949.72;5055098;28;20063;-42
2021/12/03 08:47:46;;;;;;;30.75;7.10;;;;;;;1.02;100.00;100943.34;5058006;28;20064;-42
2021/12/03 08:50:16;;;;;;;37.33;8.07;;;;;;;1.04;100.00;100938.00;5064291;28;20221;-41
2021/12/03 08:55:25;;;;;;;31.75;7.07;;;;;;;1.09;100.00;100934.13;5058300;28;20290;-44
2021/12/03 08:57:50;;;;;;;37.10;7.28;;;;;;;1.15;100.00;100937.31;5075357;28;20020;-43
2021/12/03 09:00:19;;;;;;;40.20;6.90;;;;;;;1.18;100.00;100931.84;5066648;28;20036;-44
2021/12/03 09:02:45;;;;;;;35.03;6.75;;;;;;;1.16;100.00;100921.44;5056848;28;20346;-47
2021/12/03 09:05:11;;;;;;;27.50;5.95;;;;;;;1.22;100.00;100925.44;5055074;28;20051;-44
2021/12/03 09:07:37;;;;;;;36.03;6.57;;;;;;;1.22;100.00;100925.44;5055379;28;20016;-43
2021/12/03 09:10:10;;;;;;;33.05;6.22;;;;;;;1.31;100.00;100927.50;5057120;28;20082;-44
2021/12/03 09:12:35;;;;;;;32.58;6.40;;;;;;;1.35;100.00;100931.59;5057940;28;20463;-43
2021/12/03 09:15:05;;;;;;;32.38;6.38;;;;;;;1.40;100.00;100915.53;5057873;28;20024;-42
2021/12/03 09:22:49;;;;;;;30.10;6.28;;;;;;;1.46;100.00;100908.06;5075763;28;20036;-41
2021/12/03 09:25:21;;;;;;;29.52;7.85;;;;;;;1.49;100.00;100902.63;5055330;28;20451;-43
2021/12/03 09:27:46;;;;;;;33.63;6.93;;;;;;;1.49;100.00;100904.38;5054970;28;20033;-43
2021/12/03 09:30:14;;;;;;;38.42;7.20;;;;;;;1.53;100.00;100924.31;5054768;28;20020;-48
2021/12/03 09:32:42;;;;;;;30.50;6.50;;;;;;;1.56;100.00;100921.47;5056767;28;20021;-46
2021/12/03 09:35:09;;;;;;;34.55;6.72;;;;;;;1.62;100.00;100926.31;5065436;28;20081;-44
2021/12/03 09:37:34;;;;;;;35.97;6.95;;;;;;;1.65;100.00;100914.75;5071910;28;20095;-43
2021/12/03 09:40:05;;;;;;;33.50;6.93;;;;;;;1.67;100.00;100912.84;5074101;28;20020;-42
2021/12/03 09:42:34;;;;;;;39.95;8.32;;;;;;;1.67;100.00;100899.69;5074959;28;20015;-45
2021/12/03 09:45:00;;;;;;;35.17;7.38;;;;;;;1.67;100.00;100897.06;5058844;28;20126;-42
2021/12/03 09:47:25;;;;;;;36.63;7.88;;;;;;;1.71;100.00;100895.06;5054934;28;20392;-43
2021/12/03 09:49:55;;;;;;;26.45;7.28;;;;;;;1.72;100.00;100894.13;5053977;28;20032;-43
2021/12/03 09:52:28;;;;;;;30.05;6.40;;;;;;;1.73;100.00;100877.38;5057447;28;20562;-46
2021/12/03 09:54:59;;;;;;;33.90;6.97;;;;;;;1.75;100.00;100870.19;5074561;28;20093;-44
2021/12/03 09:57:34;;;;;;;27.52;6.90;;;;;;;1.75;100.00;100870.19;5058215;28;20021;-44
2021/12/03 10:00:16;;;;;;;30.80;7.05;;;;;;;1.75;100.00;100859.66;5053977;28;20029;-44
2021/12/03 10:13:29;;;;;;;22.38;6.55;;;;;;;2.01;100.00;100860.53;5065000;28;20096;-44
2021/12/03 10:16:02;;;;;;;32.70;6.63;;;;;;;2.03;100.00;100859.47;5061950;28;20413;-47
2021/12/03 10:18:41;;;;;;;29.00;6.93;;;;;;;2.05;100.00;100852.34;5069112;28;20021;-47
2021/12/03 10:38:24;;;;;;;22.05;6.05;;;;;;;2.24;100.00;100807.09;5060643;28;20093;-43
2021/12/03 10:41:09;;;;;;;26.08;7.20;;;;;;;2.27;100.00;100805.19;5073129;28;20024;-45
2021/12/03 10:43:50;;;;;;;24.00;6.32;;;;;;;2.32;100.00;100785.47;5053193;28;20024;-43
2021/12/03 10:51:45;;;;;;;29.85;7.45;;;;;;;2.41;100.00;100783.94;5053809;28;20193;-43
2021/12/03 11:00:25;;;;;;;28.77;7.57;;;;;;;2.56;100.00;100760.94;4990277;28;20508;-43
2021/12/03 11:03:18;;;;;;;22.55;6.82;;;;;;;2.61;100.00;100749.13;5068745;28;20055;-44
2021/12/03 11:05:59;;;;;;;27.10;7.05;;;;;;;2.64;100.00;100750.66;5053075;28;20063;-44
2021/12/03 11:11:19;;;;;;;30.58;7.22;;;;;;;2.72;100.00;100743.03;5077587;28;20419;-43
2021/12/03 11:14:30;;;;;;;23.33;6.70;;;;;;;2.78;100.00;100744.38;5071571;28;20144;-44
2021/12/03 11:16:57;;;;;;;28.67;8.30;;;;;;;2.78;100.00;100736.47;5056700;28;20032;-44
2021/12/03 11:20:03;;;;;;;29.88;7.40;;;;;;;2.84;100.00;100738.66;5072013;28;20063;-44
2021/12/03 11:26:07;;;;;;;27.65;7.75;;;;;;;2.89;100.00;100707.50;5076336;28;20070;-42
2021/12/03 11:31:10;;;;;;;24.48;7.93;;;;;;;3.01;100.00;100705.75;5056219;28;20433;-42
2021/12/03 11:39:27;;;;;;;25.42;7.85;;;;;;;3.12;100.00;100695.22;5055744;28;20028;-41
2021/12/03 11:45:29;;;;;;;30.88;8.98;;;;;;;3.17;100.00;100686.94;5062837;28;20107;-43
2021/12/03 12:23:14;;;;;;;18.77;6.30;;;;;;;3.56;99.70;100602.97;5076427;28;20101;-43
2021/12/03 12:31:24;;;;;;;22.00;6.53;;;;;;;3.66;97.46;100590.72;5075511;28;20143;-42
2021/12/03 12:36:31;;;;;;;16.35;6.03;;;;;;;3.70;97.90;100593.94;5055095;28;20333;-44
2021/12/03 12:39:33;;;;;;;20.13;6.20;;;;;;;3.70;96.73;100599.22;5062828;28;20208;-45
2021/12/03 12:45:05;;;;;;;17.17;4.93;;;;;;;3.70;95.81;100586.00;5070616;28;20563;-44
2021/12/03 12:56:59;;;;;;;14.35;5.50;;;;;;;3.64;95.43;100568.03;5075083;28;20039;-44
2021/12/03 13:10:11;;;;;;;16.17;4.43;;;;;;;3.69;94.97;100547.38;5074686;28;20036;-43
2021/12/03 13:23:57;;;;;;;17.63;4.70;;;;;;;3.75;94.13;100531.03;5055561;28;20075;-43
2021/12/03 13:29:18;;;;;;;19.48;5.18;;;;;;;3.65;96.35;100523.03;5054942;28;20487;-43
2021/12/03 13:32:17;;;;;;;19.58;4.63;;;;;;;3.51;100.00;100540.00;5058972;28;20036;-42
2021/12/03 14:11:17;;;;;;;16.33;5.15;;;;;;;2.69;100.00;100507.75;5053781;28;20231;-48